sensor_id;sensor_type;location;lat;lon;timestamp;temperature;humidity
74946;HTU21D;63509;45.250;38.102;2022-10-16T00:01:18;10.66;57.59
74946;HTU21D;63509;45.250;38.102;2022-10-16T00:03:45;10.66;57.64
74946;HTU21D;63509;45.250;38.102;2022-10-16T00:06:12;10.65;57.67
74946;HTU21D;63509;45.250;38.102;2022-10-16T00:08:39;10.65;57.71
74946;HTU21D;63509;45.250;38.102;2022-10-16T00:11:18;10.64;57.64
74946;HTU21D;63509;45.250;38.102;2022-10-16T00:13:46;10.64;57.74
74946;HTU21D;63509;45.250;38.102;2022-10-16T00:16:14;10.64;57.84
74946;HTU21D;63509;45.250;38.102;2022-10-16T00:18:40;10.64;57.89
74946;HTU21D;63509;45.250;38.102;2022-10-16T00:21:09;10.64;57.92
74946;HTU21D;63509;45.250;38.102;2022-10-16T00:23:36;10.63;57.96
74946;HTU21D;63509;45.250;38.102;2022-10-16T00:26:07;10.63;57.97
74946;HTU21D;63509;45.250;38.102;2022-10-16T00:28:35;10.63;58.03
74946;HTU21D;63509;45.250;38.102;2022-10-16T00:31:10;10.60;57.96
74946;HTU21D;63509;45.250;38.102;2022-10-16T00:33:36;10.59;57.78
74946;HTU21D;63509;45.250;38.102;2022-10-16T00:36:05;10.56;57.98
74946;HTU21D;63509;45.250;38.102;2022-10-16T00:38:31;10.55;57.78
74946;HTU21D;63509;45.250;38.102;2022-10-16T00:40:57;10.52;58.04
74946;HTU21D;63509;45.250;38.102;2022-10-16T00:46:24;10.49;58.19
74946;HTU21D;63509;45.250;38.102;2022-10-16T00:49:00;10.50;58.19
74946;HTU21D;63509;45.250;38.102;2022-10-16T00:51:48;10.50;58.15
74946;HTU21D;63509;45.250;38.102;2022-10-16T00:54:22;10.49;58.29
74946;HTU21D;63509;45.250;38.102;2022-10-16T00:56:49;10.50;58.43
74946;HTU21D;63509;45.250;38.102;2022-10-16T00:59:35;10.49;58.40
74946;HTU21D;63509;45.250;38.102;2022-10-16T01:02:03;10.49;58.45
74946;HTU21D;63509;45.250;38.102;2022-10-16T01:04:39;10.48;58.42
74946;HTU21D;63509;45.250;38.102;2022-10-16T01:12:48;10.45;58.49
74946;HTU21D;63509;45.250;38.102;2022-10-16T01:18:43;10.43;58.54
74946;HTU21D;63509;45.250;38.102;2022-10-16T01:26:36;10.39;58.70
74946;HTU21D;63509;45.250;38.102;2022-10-16T01:29:18;10.40;58.77
74946;HTU21D;63509;45.250;38.102;2022-10-16T01:31:50;10.38;58.96
74946;HTU21D;63509;45.250;38.102;2022-10-16T01:34:22;10.39;58.96
74946;HTU21D;63509;45.250;38.102;2022-10-16T01:36:59;10.38;58.91
74946;HTU21D;63509;45.250;38.102;2022-10-16T01:39:30;10.39;59.06
74946;HTU21D;63509;45.250;38.102;2022-10-16T01:42:07;10.37;59.03
74946;HTU21D;63509;45.250;38.102;2022-10-16T01:44:35;10.37;59.16
74946;HTU21D;63509;45.250;38.102;2022-10-16T01:47:02;10.37;59.22
74946;HTU21D;63509;45.250;38.102;2022-10-16T01:49:33;10.36;59.21
74946;HTU21D;63509;45.250;38.102;2022-10-16T01:52:02;10.35;59.32
74946;HTU21D;63509;45.250;38.102;2022-10-16T01:54:31;10.35;59.35
74946;HTU21D;63509;45.250;38.102;2022-10-16T01:56:58;10.35;59.38
74946;HTU21D;63509;45.250;38.102;2022-10-16T01:59:26;10.34;59.41
74946;HTU21D;63509;45.250;38.102;2022-10-16T02:01:58;10.35;59.45
74946;HTU21D;63509;45.250;38.102;2022-10-16T02:04:33;10.33;59.46
74946;HTU21D;63509;45.250;38.102;2022-10-16T02:07:00;10.36;59.59
74946;HTU21D;63509;45.250;38.102;2022-10-16T02:09:26;10.34;59.61
74946;HTU21D;63509;45.250;38.102;2022-10-16T02:11:55;10.34;59.67
74946;HTU21D;63509;45.250;38.102;2022-10-16T02:14:22;10.33;59.67
74946;HTU21D;63509;45.250;38.102;2022-10-16T02:16:50;10.31;59.77
74946;HTU21D;63509;45.250;38.102;2022-10-16T02:19:17;10.34;59.78
74946;HTU21D;63509;45.250;38.102;2022-10-16T02:21:58;10.34;59.70
74946;HTU21D;63509;45.250;38.102;2022-10-16T02:27:57;10.31;59.70
74946;HTU21D;63509;45.250;38.102;2022-10-16T02:33:15;10.27;59.88
74946;HTU21D;63509;45.250;38.102;2022-10-16T02:35:44;10.25;59.98
74946;HTU21D;63509;45.250;38.102;2022-10-16T02:38:11;10.26;60.07
74946;HTU21D;63509;45.250;38.102;2022-10-16T02:40:38;10.26;60.12
74946;HTU21D;63509;45.250;38.102;2022-10-16T02:43:05;10.24;60.15
74946;HTU21D;63509;45.250;38.102;2022-10-16T02:45:32;10.24;60.22
74946;HTU21D;63509;45.250;38.102;2022-10-16T02:47:58;10.23;60.24
74946;HTU21D;63509;45.250;38.102;2022-10-16T02:50:24;10.22;60.35
74946;HTU21D;63509;45.250;38.102;2022-10-16T02:52:51;10.23;60.38
74946;HTU21D;63509;45.250;38.102;2022-10-16T02:55:17;10.24;60.43
74946;HTU21D;63509;45.250;38.102;2022-10-16T02:57:43;10.22;60.47
74946;HTU21D;63509;45.250;38.102;2022-10-16T03:00:12;10.22;60.52
74946;HTU21D;63509;45.250;38.102;2022-10-16T03:02:39;10.20;60.54
74946;HTU21D;63509;45.250;38.102;2022-10-16T03:05:05;10.20;60.60
74946;HTU21D;63509;45.250;38.102;2022-10-16T03:07:31;10.20;60.62
74946;HTU21D;63509;45.250;38.102;2022-10-16T03:09:57;10.20;60.64
74946;HTU21D;63509;45.250;38.102;2022-10-16T03:12:27;10.19;60.70
74946;HTU21D;63509;45.250;38.102;2022-10-16T03:14:53;10.19;60.70
74946;HTU21D;63509;45.250;38.102;2022-10-16T03:17:19;10.18;60.73
74946;HTU21D;63509;45.250;38.102;2022-10-16T03:19:45;10.18;60.80
74946;HTU21D;63509;45.250;38.102;2022-10-16T03:22:11;10.16;60.87
74946;HTU21D;63509;45.250;38.102;2022-10-16T03:24:37;10.16;60.92
74946;HTU21D;63509;45.250;38.102;2022-10-16T03:27:04;10.14;60.95
74946;HTU21D;63509;45.250;38.102;2022-10-16T03:29:30;10.14;61.02
74946;HTU21D;63509;45.250;38.102;2022-10-16T03:31:56;10.13;61.05
74946;HTU21D;63509;45.250;38.102;2022-10-16T03:34:23;10.13;61.12
74946;HTU21D;63509;45.250;38.102;2022-10-16T03:36:50;10.14;61.15
74946;HTU21D;63509;45.250;38.102;2022-10-16T03:39:16;10.14;61.24
74946;HTU21D;63509;45.250;38.102;2022-10-16T03:41:42;10.14;61.25
74946;HTU21D;63509;45.250;38.102;2022-10-16T03:44:08;10.14;61.30
74946;HTU21D;63509;45.250;38.102;2022-10-16T03:46:34;10.12;61.32
74946;HTU21D;63509;45.250;38.102;2022-10-16T03:49:00;10.12;61.39
74946;HTU21D;63509;45.250;38.102;2022-10-16T03:51:26;10.10;61.42
74946;HTU21D;63509;45.250;38.102;2022-10-16T03:53:52;10.11;61.49
74946;HTU21D;63509;45.250;38.102;2022-10-16T03:56:18;10.10;61.49
74946;HTU21D;63509;45.250;38.102;2022-10-16T03:58:44;10.09;61.57
74946;HTU21D;63509;45.250;38.102;2022-10-16T04:01:11;10.08;61.65
74946;HTU21D;63509;45.250;38.102;2022-10-16T04:03:37;10.10;61.71
74946;HTU21D;63509;45.250;38.102;2022-10-16T04:06:03;10.11;61.75
74946;HTU21D;63509;45.250;38.102;2022-10-16T04:08:29;10.11;61.78
74946;HTU21D;63509;45.250;38.102;2022-10-16T04:10:55;10.11;61.92
74946;HTU21D;63509;45.250;38.102;2022-10-16T04:13:21;10.13;61.86
74946;HTU21D;63509;45.250;38.102;2022-10-16T04:15:47;10.13;61.89
74946;HTU21D;63509;45.250;38.102;2022-10-16T04:18:13;10.14;61.98
74946;HTU21D;63509;45.250;38.102;2022-10-16T04:20:40;10.15;62.01
74946;HTU21D;63509;45.250;38.102;2022-10-16T04:23:06;10.19;62.02
74946;HTU21D;63509;45.250;38.102;2022-10-16T04:25:32;10.19;62.07
74946;HTU21D;63509;45.250;38.102;2022-10-16T04:27:58;10.21;62.14
74946;HTU21D;63509;45.250;38.102;2022-10-16T04:30:25;10.23;62.14
74946;HTU21D;63509;45.250;38.102;2022-10-16T04:32:51;10.22;62.17
74946;HTU21D;63509;45.250;38.102;2022-10-16T04:35:20;10.24;62.22
74946;HTU21D;63509;45.250;38.102;2022-10-16T04:37:46;10.24;62.24
74946;HTU21D;63509;45.250;38.102;2022-10-16T04:40:13;10.24;62.27
74946;HTU21D;63509;45.250;38.102;2022-10-16T04:42:39;10.24;62.33
74946;HTU21D;63509;45.250;38.102;2022-10-16T04:45:06;10.25;62.43
74946;HTU21D;63509;45.250;38.102;2022-10-16T04:47:33;10.25;62.49
74946;HTU21D;63509;45.250;38.102;2022-10-16T04:50:00;10.27;62.57
74946;HTU21D;63509;45.250;38.102;2022-10-16T04:52:28;10.29;62.62
74946;HTU21D;63509;45.250;38.102;2022-10-16T04:54:54;10.33;62.66
74946;HTU21D;63509;45.250;38.102;2022-10-16T04:57:22;10.35;62.69
74946;HTU21D;63509;45.250;38.102;2022-10-16T04:59:48;10.38;62.73
74946;HTU21D;63509;45.250;38.102;2022-10-16T05:02:14;10.39;62.77
74946;HTU21D;63509;45.250;38.102;2022-10-16T05:04:40;10.40;62.79
74946;HTU21D;63509;45.250;38.102;2022-10-16T05:07:06;10.45;62.87
74946;HTU21D;63509;45.250;38.102;2022-10-16T05:09:32;10.49;62.95
74946;HTU21D;63509;45.250;38.102;2022-10-16T05:11:58;10.51;63.00
74946;HTU21D;63509;45.250;38.102;2022-10-16T05:14:24;10.54;63.07
74946;HTU21D;63509;45.250;38.102;2022-10-16T05:16:50;10.59;63.09
74946;HTU21D;63509;45.250;38.102;2022-10-16T05:19:17;10.64;63.11
74946;HTU21D;63509;45.250;38.102;2022-10-16T05:21:43;10.70;63.16
74946;HTU21D;63509;45.250;38.102;2022-10-16T05:24:09;10.73;63.19
74946;HTU21D;63509;45.250;38.102;2022-10-16T05:26:36;10.81;63.28
74946;HTU21D;63509;45.250;38.102;2022-10-16T05:29:02;10.88;63.31
74946;HTU21D;63509;45.250;38.102;2022-10-16T05:31:28;10.96;63.31
74946;HTU21D;63509;45.250;38.102;2022-10-16T05:33:58;11.03;63.28
74946;HTU21D;63509;45.250;38.102;2022-10-16T05:36:25;11.12;63.46
74946;HTU21D;63509;45.250;38.102;2022-10-16T05:38:51;11.23;63.44
74946;HTU21D;63509;45.250;38.102;2022-10-16T05:41:18;11.30;63.42
74946;HTU21D;63509;45.250;38.102;2022-10-16T05:43:48;11.40;63.40
74946;HTU21D;63509;45.250;38.102;2022-10-16T05:46:14;11.49;63.44
74946;HTU21D;63509;45.250;38.102;2022-10-16T05:48:41;11.59;63.39
74946;HTU21D;63509;45.250;38.102;2022-10-16T05:51:09;11.67;63.38
74946;HTU21D;63509;45.250;38.102;2022-10-16T05:53:37;11.78;63.37
74946;HTU21D;63509;45.250;38.102;2022-10-16T05:56:04;11.87;63.39
74946;HTU21D;63509;45.250;38.102;2022-10-16T05:58:32;11.96;63.44
74946;HTU21D;63509;45.250;38.102;2022-10-16T06:01:01;12.07;63.36
74946;HTU21D;63509;45.250;38.102;2022-10-16T06:03:28;12.18;63.45
74946;HTU21D;63509;45.250;38.102;2022-10-16T06:05:54;12.31;63.50
74946;HTU21D;63509;45.250;38.102;2022-10-16T06:08:22;12.43;63.53
74946;HTU21D;63509;45.250;38.102;2022-10-16T06:10:49;12.55;63.52
74946;HTU21D;63509;45.250;38.102;2022-10-16T06:13:15;12.67;63.53
74946;HTU21D;63509;45.250;38.102;2022-10-16T06:15:42;12.80;63.53
74946;HTU21D;63509;45.250;38.102;2022-10-16T06:18:09;12.97;63.56
74946;HTU21D;63509;45.250;38.102;2022-10-16T06:20:36;13.16;63.49
74946;HTU21D;63509;45.250;38.102;2022-10-16T06:23:03;13.34;63.37
74946;HTU21D;63509;45.250;38.102;2022-10-16T06:25:31;13.50;63.24
74946;HTU21D;63509;45.250;38.102;2022-10-16T06:27:57;13.65;63.22
74946;HTU21D;63509;45.250;38.102;2022-10-16T06:30:23;13.81;63.11
74946;HTU21D;63509;45.250;38.102;2022-10-16T06:32:49;13.95;62.98
74946;HTU21D;63509;45.250;38.102;2022-10-16T06:35:15;14.09;62.78
74946;HTU21D;63509;45.250;38.102;2022-10-16T06:37:41;14.22;62.66
74946;HTU21D;63509;45.250;38.102;2022-10-16T06:40:08;14.34;62.53
74946;HTU21D;63509;45.250;38.102;2022-10-16T06:42:34;14.45;62.45
74946;HTU21D;63509;45.250;38.102;2022-10-16T06:45:01;14.57;62.43
74946;HTU21D;63509;45.250;38.102;2022-10-16T06:47:27;14.69;62.21
74946;HTU21D;63509;45.250;38.102;2022-10-16T06:49:53;14.79;62.13
74946;HTU21D;63509;45.250;38.102;2022-10-16T06:52:19;14.86;61.98
74946;HTU21D;63509;45.250;38.102;2022-10-16T06:54:45;14.94;61.93
74946;HTU21D;63509;45.250;38.102;2022-10-16T06:57:11;15.02;61.84
74946;HTU21D;63509;45.250;38.102;2022-10-16T06:59:37;15.10;61.89
74946;HTU21D;63509;45.250;38.102;2022-10-16T07:02:03;15.21;61.83
74946;HTU21D;63509;45.250;38.102;2022-10-16T07:04:30;15.31;61.79
74946;HTU21D;63509;45.250;38.102;2022-10-16T07:06:56;15.41;61.72
74946;HTU21D;63509;45.250;38.102;2022-10-16T07:09:22;15.46;61.62
74946;HTU21D;63509;45.250;38.102;2022-10-16T07:11:48;15.54;61.59
74946;HTU21D;63509;45.250;38.102;2022-10-16T07:14:19;15.63;61.50
74946;HTU21D;63509;45.250;38.102;2022-10-16T07:16:46;15.72;61.68
74946;HTU21D;63509;45.250;38.102;2022-10-16T07:19:12;15.84;61.50
74946;HTU21D;63509;45.250;38.102;2022-10-16T07:21:41;15.97;61.44
74946;HTU21D;63509;45.250;38.102;2022-10-16T07:24:12;16.08;61.38
74946;HTU21D;63509;45.250;38.102;2022-10-16T07:26:39;16.20;61.25
74946;HTU21D;63509;45.250;38.102;2022-10-16T07:29:20;16.35;61.09
74946;HTU21D;63509;45.250;38.102;2022-10-16T07:31:47;16.50;60.96
74946;HTU21D;63509;45.250;38.102;2022-10-16T07:34:15;16.65;60.96
74946;HTU21D;63509;45.250;38.102;2022-10-16T07:36:41;16.85;60.61
74946;HTU21D;63509;45.250;38.102;2022-10-16T07:39:08;17.02;60.30
74946;HTU21D;63509;45.250;38.102;2022-10-16T07:41:34;17.18;60.05
74946;HTU21D;63509;45.250;38.102;2022-10-16T07:44:03;17.32;59.77
74946;HTU21D;63509;45.250;38.102;2022-10-16T07:46:30;17.45;59.66
74946;HTU21D;63509;45.250;38.102;2022-10-16T07:48:56;17.60;59.59
74946;HTU21D;63509;45.250;38.102;2022-10-16T07:51:24;17.76;59.36
74946;HTU21D;63509;45.250;38.102;2022-10-16T07:53:51;17.91;59.10
74946;HTU21D;63509;45.250;38.102;2022-10-16T07:56:18;18.08;59.21
74946;HTU21D;63509;45.250;38.102;2022-10-16T07:58:44;18.28;59.23
74946;HTU21D;63509;45.250;38.102;2022-10-16T08:01:13;18.50;59.09
74946;HTU21D;63509;45.250;38.102;2022-10-16T08:03:42;18.76;58.62
74946;HTU21D;63509;45.250;38.102;2022-10-16T08:06:09;19.05;58.42
74946;HTU21D;63509;45.250;38.102;2022-10-16T08:08:35;19.36;57.86
74946;HTU21D;63509;45.250;38.102;2022-10-16T08:11:01;19.67;57.26
74946;HTU21D;63509;45.250;38.102;2022-10-16T08:13:30;19.95;56.66
74946;HTU21D;63509;45.250;38.102;2022-10-16T08:15:56;20.13;56.14
74946;HTU21D;63509;45.250;38.102;2022-10-16T08:18:23;20.28;55.81
74946;HTU21D;63509;45.250;38.102;2022-10-16T08:20:58;20.43;55.71
74946;HTU21D;63509;45.250;38.102;2022-10-16T08:23:27;20.47;55.00
74946;HTU21D;63509;45.250;38.102;2022-10-16T08:25:56;20.51;54.75
74946;HTU21D;63509;45.250;38.102;2022-10-16T08:28:27;20.53;54.62
74946;HTU21D;63509;45.250;38.102;2022-10-16T08:30:53;20.57;54.37
74946;HTU21D;63509;45.250;38.102;2022-10-16T08:33:19;20.60;54.30
74946;HTU21D;63509;45.250;38.102;2022-10-16T08:35:52;20.65;54.56
74946;HTU21D;63509;45.250;38.102;2022-10-16T08:38:19;20.72;54.42
74946;HTU21D;63509;45.250;38.102;2022-10-16T08:40:46;20.76;54.08
74946;HTU21D;63509;45.250;38.102;2022-10-16T08:51:04;20.56;53.31
74946;HTU21D;63509;45.250;38.102;2022-10-16T08:53:59;20.42;53.55
74946;HTU21D;63509;45.250;38.102;2022-10-16T08:56:25;20.21;53.52
74946;HTU21D;63509;45.250;38.102;2022-10-16T08:58:52;20.05;53.68
74946;HTU21D;63509;45.250;38.102;2022-10-16T09:01:20;19.89;54.04
74946;HTU21D;63509;45.250;38.102;2022-10-16T09:06:46;19.71;54.54
74946;HTU21D;63509;45.250;38.102;2022-10-16T09:11:46;19.57;54.87
74946;HTU21D;63509;45.250;38.102;2022-10-16T09:14:54;19.59;55.13
74946;HTU21D;63509;45.250;38.102;2022-10-16T09:17:53;19.62;55.30
74946;HTU21D;63509;45.250;38.102;2022-10-16T09:20:34;19.66;55.28
74946;HTU21D;63509;45.250;38.102;2022-10-16T09:25:30;19.77;55.20
74946;HTU21D;63509;45.250;38.102;2022-10-16T09:27:57;19.87;54.99
74946;HTU21D;63509;45.250;38.102;2022-10-16T09:30:26;19.98;54.78
74946;HTU21D;63509;45.250;38.102;2022-10-16T09:32:54;20.11;54.73
74946;HTU21D;63509;45.250;38.102;2022-10-16T09:35:24;20.25;54.91
74946;HTU21D;63509;45.250;38.102;2022-10-16T09:37:54;20.39;54.87
74946;HTU21D;63509;45.250;38.102;2022-10-16T09:40:42;20.58;54.46
74946;HTU21D;63509;45.250;38.102;2022-10-16T09:49:01;20.83;53.56
74946;HTU21D;63509;45.250;38.102;2022-10-16T09:51:37;20.84;53.49
74946;HTU21D;63509;45.250;38.102;2022-10-16T09:56:37;20.80;53.25
74946;HTU21D;63509;45.250;38.102;2022-10-16T09:59:17;20.85;53.27
74946;HTU21D;63509;45.250;38.102;2022-10-16T10:01:51;20.88;53.14
74946;HTU21D;63509;45.250;38.102;2022-10-16T10:04:23;20.92;52.93
74946;HTU21D;63509;45.250;38.102;2022-10-16T10:06:57;20.94;52.84
74946;HTU21D;63509;45.250;38.102;2022-10-16T10:09:27;20.96;52.62
74946;HTU21D;63509;45.250;38.102;2022-10-16T10:11:57;21.01;52.72
74946;HTU21D;63509;45.250;38.102;2022-10-16T10:16:51;21.01;53.07
74946;HTU21D;63509;45.250;38.102;2022-10-16T10:19:22;21.08;53.06
74946;HTU21D;63509;45.250;38.102;2022-10-16T10:21:52;21.19;52.91
74946;HTU21D;63509;45.250;38.102;2022-10-16T10:24:19;21.28;52.22
74946;HTU21D;63509;45.250;38.102;2022-10-16T10:27:04;21.27;52.22
74946;HTU21D;63509;45.250;38.102;2022-10-16T10:29:54;21.23;52.27
74946;HTU21D;63509;45.250;38.102;2022-10-16T10:35:38;21.20;51.94
74946;HTU21D;63509;45.250;38.102;2022-10-16T10:40:52;21.05;51.63
74946;HTU21D;63509;45.250;38.102;2022-10-16T10:43:33;20.99;51.83
74946;HTU21D;63509;45.250;38.102;2022-10-16T10:46:09;20.92;51.94
74946;HTU21D;63509;45.250;38.102;2022-10-16T10:48:50;20.90;51.92
74946;HTU21D;63509;45.250;38.102;2022-10-16T10:51:41;20.89;52.03
74946;HTU21D;63509;45.250;38.102;2022-10-16T10:57:02;20.87;52.06
74946;HTU21D;63509;45.250;38.102;2022-10-16T11:00:06;20.87;52.01
74946;HTU21D;63509;45.250;38.102;2022-10-16T11:03:00;20.86;52.04
74946;HTU21D;63509;45.250;38.102;2022-10-16T11:05:42;20.80;51.95
74946;HTU21D;63509;45.250;38.102;2022-10-16T11:08:28;20.76;52.01
74946;HTU21D;63509;45.250;38.102;2022-10-16T11:11:02;20.69;51.79
74946;HTU21D;63509;45.250;38.102;2022-10-16T11:16:21;20.54;52.16
74946;HTU21D;63509;45.250;38.102;2022-10-16T11:24:43;20.53;52.40
74946;HTU21D;63509;45.250;38.102;2022-10-16T11:27:15;20.53;52.24
74946;HTU21D;63509;45.250;38.102;2022-10-16T11:29:59;20.54;52.31
74946;HTU21D;63509;45.250;38.102;2022-10-16T11:32:36;20.50;52.25
74946;HTU21D;63509;45.250;38.102;2022-10-16T11:35:17;20.45;52.25
74946;HTU21D;63509;45.250;38.102;2022-10-16T11:37:46;20.40;52.17
74946;HTU21D;63509;45.250;38.102;2022-10-16T11:42:59;20.29;52.31
74946;HTU21D;63509;45.250;38.102;2022-10-16T11:45:42;20.25;52.46
74946;HTU21D;63509;45.250;38.102;2022-10-16T11:48:15;20.19;52.69
74946;HTU21D;63509;45.250;38.102;2022-10-16T11:50:54;20.16;52.77
74946;HTU21D;63509;45.250;38.102;2022-10-16T11:56:21;20.04;52.75
74946;HTU21D;63509;45.250;38.102;2022-10-16T12:01:53;19.96;53.04
74946;HTU21D;63509;45.250;38.102;2022-10-16T12:07:20;19.88;53.11
74946;HTU21D;63509;45.250;38.102;2022-10-16T12:09:47;19.81;53.19
74946;HTU21D;63509;45.250;38.102;2022-10-16T12:12:37;19.77;53.19
74946;HTU21D;63509;45.250;38.102;2022-10-16T12:15:25;19.73;53.29
74946;HTU21D;63509;45.250;38.102;2022-10-16T12:17:52;19.67;53.42
74946;HTU21D;63509;45.250;38.102;2022-10-16T12:20:30;19.65;53.55
74946;HTU21D;63509;45.250;38.102;2022-10-16T12:23:07;19.62;53.54
74946;HTU21D;63509;45.250;38.102;2022-10-16T12:25:57;19.60;53.64
74946;HTU21D;63509;45.250;38.102;2022-10-16T12:28:34;19.58;53.74
74946;HTU21D;63509;45.250;38.102;2022-10-16T12:31:04;19.55;53.72
74946;HTU21D;63509;45.250;38.102;2022-10-16T12:33:33;19.54;53.82
74946;HTU21D;63509;45.250;38.102;2022-10-16T12:36:03;19.54;53.85
74946;HTU21D;63509;45.250;38.102;2022-10-16T12:41:07;19.48;53.90
74946;HTU21D;63509;45.250;38.102;2022-10-16T12:43:45;19.46;53.91
74946;HTU21D;63509;45.250;38.102;2022-10-16T12:48:39;19.41;53.99
74946;HTU21D;63509;45.250;38.102;2022-10-16T12:51:43;19.40;53.95
74946;HTU21D;63509;45.250;38.102;2022-10-16T12:54:18;19.36;54.04
74946;HTU21D;63509;45.250;38.102;2022-10-16T13:02:56;19.22;54.17
74946;HTU21D;63509;45.250;38.102;2022-10-16T13:05:47;19.20;54.26
74946;HTU21D;63509;45.250;38.102;2022-10-16T13:11:20;19.09;54.39
74946;HTU21D;63509;45.250;38.102;2022-10-16T13:30:23;18.78;54.75
74946;HTU21D;63509;45.250;38.102;2022-10-16T13:32:50;18.74;54.81
74946;HTU21D;63509;45.250;38.102;2022-10-16T13:35:27;18.72;54.79
74946;HTU21D;63509;45.250;38.102;2022-10-16T13:38:27;18.67;54.78
74946;HTU21D;63509;45.250;38.102;2022-10-16T13:41:25;18.61;54.89
74946;HTU21D;63509;45.250;38.102;2022-10-16T13:43:52;18.54;55.08
74946;HTU21D;63509;45.250;38.102;2022-10-16T13:46:23;18.50;55.16
74946;HTU21D;63509;45.250;38.102;2022-10-16T13:49:00;18.47;55.09
74946;HTU21D;63509;45.250;38.102;2022-10-16T13:51:27;18.40;55.27
74946;HTU21D;63509;45.250;38.102;2022-10-16T13:53:55;18.36;55.36
74946;HTU21D;63509;45.250;38.102;2022-10-16T13:56:25;18.32;55.34
74946;HTU21D;63509;45.250;38.102;2022-10-16T13:59:01;18.28;55.36
74946;HTU21D;63509;45.250;38.102;2022-10-16T14:02:05;18.22;55.55
74946;HTU21D;63509;45.250;38.102;2022-10-16T14:04:21;18.15;55.68
74946;HTU21D;63509;45.250;38.102;2022-10-16T14:06:50;18.12;55.81
74946;HTU21D;63509;45.250;38.102;2022-10-16T14:09:26;18.08;55.76
74946;HTU21D;63509;45.250;38.102;2022-10-16T14:12:03;18.04;56.00
74946;HTU21D;63509;45.250;38.102;2022-10-16T14:14:41;17.99;55.96
74946;HTU21D;63509;45.250;38.102;2022-10-16T14:19:56;17.88;56.10
74946;HTU21D;63509;45.250;38.102;2022-10-16T14:22:37;17.83;56.00
74946;HTU21D;63509;45.250;38.102;2022-10-16T14:28:31;17.75;56.16
74946;HTU21D;63509;45.250;38.102;2022-10-16T14:30:35;17.67;56.16
74946;HTU21D;63509;45.250;38.102;2022-10-16T14:33:04;17.63;56.21
74946;HTU21D;63509;45.250;38.102;2022-10-16T14:38:01;17.52;56.19
74946;HTU21D;63509;45.250;38.102;2022-10-16T14:40:30;17.47;56.24
74946;HTU21D;63509;45.250;38.102;2022-10-16T14:42:57;17.43;56.21
74946;HTU21D;63509;45.250;38.102;2022-10-16T14:45:27;17.37;56.23
74946;HTU21D;63509;45.250;38.102;2022-10-16T14:47:56;17.32;56.26
74946;HTU21D;63509;45.250;38.102;2022-10-16T14:50:23;17.26;56.28
74946;HTU21D;63509;45.250;38.102;2022-10-16T14:52:49;17.23;56.30
74946;HTU21D;63509;45.250;38.102;2022-10-16T14:55:16;17.19;56.32
74946;HTU21D;63509;45.250;38.102;2022-10-16T14:57:44;17.15;56.36
74946;HTU21D;63509;45.250;38.102;2022-10-16T15:00:22;17.11;56.33
74946;HTU21D;63509;45.250;38.102;2022-10-16T15:02:49;17.07;56.42
74946;HTU21D;63509;45.250;38.102;2022-10-16T15:05:27;17.04;56.39
74946;HTU21D;63509;45.250;38.102;2022-10-16T15:07:54;17.00;56.45
74946;HTU21D;63509;45.250;38.102;2022-10-16T15:10:22;16.95;56.45
74946;HTU21D;63509;45.250;38.102;2022-10-16T15:12:49;16.90;56.38
74946;HTU21D;63509;45.250;38.102;2022-10-16T15:17:51;16.77;56.66
74946;HTU21D;63509;45.250;38.102;2022-10-16T15:20:23;16.72;56.65
74946;HTU21D;63509;45.250;38.102;2022-10-16T15:22:50;16.70;56.74
74946;HTU21D;63509;45.250;38.102;2022-10-16T15:25:38;16.69;56.63
74946;HTU21D;63509;45.250;38.102;2022-10-16T15:28:08;16.67;56.67
74946;HTU21D;63509;45.250;38.102;2022-10-16T15:30:35;16.69;56.72
74946;HTU21D;63509;45.250;38.102;2022-10-16T15:33:03;16.71;56.57
74946;HTU21D;63509;45.250;38.102;2022-10-16T15:35:30;16.71;56.57
74946;HTU21D;63509;45.250;38.102;2022-10-16T15:37:57;16.70;56.52
74946;HTU21D;63509;45.250;38.102;2022-10-16T15:40:23;16.70;56.52
74946;HTU21D;63509;45.250;38.102;2022-10-16T15:42:49;16.69;56.45
74946;HTU21D;63509;45.250;38.102;2022-10-16T15:45:15;16.67;56.52
74946;HTU21D;63509;45.250;38.102;2022-10-16T15:47:42;16.67;56.54
74946;HTU21D;63509;45.250;38.102;2022-10-16T15:50:13;16.66;56.49
74946;HTU21D;63509;45.250;38.102;2022-10-16T15:52:40;16.64;56.60
74946;HTU21D;63509;45.250;38.102;2022-10-16T15:55:10;16.63;56.59
74946;HTU21D;63509;45.250;38.102;2022-10-16T15:57:38;16.61;56.60
74946;HTU21D;63509;45.250;38.102;2022-10-16T16:00:07;16.57;56.63
74946;HTU21D;63509;45.250;38.102;2022-10-16T16:02:38;16.54;56.70
74946;HTU21D;63509;45.250;38.102;2022-10-16T16:05:06;16.48;56.58
74946;HTU21D;63509;45.250;38.102;2022-10-16T16:07:37;16.43;56.81
74946;HTU21D;63509;45.250;38.102;2022-10-16T16:10:05;16.41;56.90
74946;HTU21D;63509;45.250;38.102;2022-10-16T16:12:32;16.37;56.96
74946;HTU21D;63509;45.250;38.102;2022-10-16T16:14:59;16.35;57.00
74946;HTU21D;63509;45.250;38.102;2022-10-16T16:17:25;16.33;57.08
74946;HTU21D;63509;45.250;38.102;2022-10-16T16:19:51;16.30;57.10
74946;HTU21D;63509;45.250;38.102;2022-10-16T16:22:17;16.28;57.15
74946;HTU21D;63509;45.250;38.102;2022-10-16T16:24:44;16.27;57.21
74946;HTU21D;63509;45.250;38.102;2022-10-16T16:27:10;16.24;57.23
74946;HTU21D;63509;45.250;38.102;2022-10-16T16:29:39;16.20;57.29
74946;HTU21D;63509;45.250;38.102;2022-10-16T16:32:06;16.17;57.35
74946;HTU21D;63509;45.250;38.102;2022-10-16T16:34:32;16.14;57.48
74946;HTU21D;63509;45.250;38.102;2022-10-16T16:36:58;16.13;57.55
74946;HTU21D;63509;45.250;38.102;2022-10-16T16:39:24;16.12;57.58
74946;HTU21D;63509;45.250;38.102;2022-10-16T16:41:50;16.10;57.61
74946;HTU21D;63509;45.250;38.102;2022-10-16T16:44:18;16.06;57.66
74946;HTU21D;63509;45.250;38.102;2022-10-16T16:46:45;16.05;57.74
74946;HTU21D;63509;45.250;38.102;2022-10-16T16:49:12;16.04;57.78
74946;HTU21D;63509;45.250;38.102;2022-10-16T16:51:44;16.01;57.80
74946;HTU21D;63509;45.250;38.102;2022-10-16T16:54:11;15.97;57.88
74946;HTU21D;63509;45.250;38.102;2022-10-16T16:56:38;15.93;57.96
74946;HTU21D;63509;45.250;38.102;2022-10-16T16:59:05;15.91;58.12
74946;HTU21D;63509;45.250;38.102;2022-10-16T17:01:32;15.90;58.13
74946;HTU21D;63509;45.250;38.102;2022-10-16T17:03:58;15.88;58.19
74946;HTU21D;63509;45.250;38.102;2022-10-16T17:06:28;15.86;58.25
74946;HTU21D;63509;45.250;38.102;2022-10-16T17:08:55;15.84;58.37
74946;HTU21D;63509;45.250;38.102;2022-10-16T17:11:24;15.82;58.43
74946;HTU21D;63509;45.250;38.102;2022-10-16T17:13:51;15.81;58.50
74946;HTU21D;63509;45.250;38.102;2022-10-16T17:16:23;15.80;58.51
74946;HTU21D;63509;45.250;38.102;2022-10-16T17:18:49;15.76;58.67
74946;HTU21D;63509;45.250;38.102;2022-10-16T17:21:16;15.75;58.75